Saltar para o conteúdo principal

Madeira, S. Lourenço

ID 1210978 · 32.7470, -16.7060 mapa

Última leitura · 2026-05-09 19:00 (Europe/Lisbon)

Temperatura
16.9 °C
Humidade
77 %
Pressão
Precipitação
0.0 mm
Radiação
702 W/m²
Velocidade do vento
19.8 km/h
Direcção do vento
NE · Nordeste

Histórico de 24 horas

Hora (Europe/Lisbon) Temperatura Humidade Pressão Chuva Vento Direcção
2026-05-09 19:00 16.9 °C 77 % 0.0 mm 19.8 km/h NE
2026-05-09 18:00 17.4 °C 74 % 0.0 mm 14.0 km/h NE
2026-05-09 17:00 17.3 °C 78 % 0.0 mm 15.1 km/h NE
2026-05-09 16:00 17.3 °C 76 % 0.0 mm 16.2 km/h NE
2026-05-09 15:00 18.2 °C 71 % 0.0 mm 16.9 km/h NE
2026-05-09 14:00 18.1 °C 70 % 0.0 mm 11.2 km/h S
2026-05-09 13:00 17.5 °C 73 % 0.0 mm 28.4 km/h N
2026-05-09 12:00 17.1 °C 78 % 0.0 mm 13.3 km/h S
2026-05-09 11:00 16.4 °C 79 % 0.0 mm 16.6 km/h NE
2026-05-09 10:00 16.8 °C 75 % 0.0 mm 9.7 km/h NW
2026-05-09 09:00 16.3 °C 73 % 0.0 mm 9.7 km/h NW
2026-05-09 08:00 15.1 °C 81 % 0.0 mm 2.2 km/h N
2026-05-09 07:00 15.9 °C 77 % 0.0 mm 15.8 km/h W
2026-05-09 06:00 15.8 °C 77 % 0.0 mm 6.1 km/h W
2026-05-09 05:00 16.0 °C 77 % 0.0 mm 10.1 km/h SW
2026-05-09 04:00 15.8 °C 81 % 0.0 mm 12.6 km/h N
2026-05-09 03:00 16.5 °C 74 % 0.0 mm 12.6 km/h S
2026-05-09 02:00 16.7 °C 74 % 0.0 mm 12.6 km/h NE
2026-05-09 01:00 16.8 °C 74 % 0.0 mm 12.6 km/h NE
2026-05-09 00:00 17.0 °C 72 % 0.0 mm 20.2 km/h E
2026-05-08 23:00 17.4 °C 67 % 0.0 mm 20.9 km/h E
2026-05-08 22:00 17.7 °C 67 % 0.0 mm 20.5 km/h E
2026-05-08 21:00 17.5 °C 70 % 0.0 mm 18.0 km/h NE
2026-05-08 20:00 18.1 °C 70 % 0.0 mm 9.4 km/h SE